createdAt,value
2022-08-02T00:01:24.831Z,100476.20
2022-08-02T00:06:23.888Z,100475.80
2022-08-02T00:11:22.817Z,100480.60
2022-08-02T00:16:22.058Z,100481.60
2022-08-02T00:21:37.458Z,100477.40
2022-08-02T00:26:36.308Z,100483.80
2022-08-02T00:31:35.972Z,100480.20
2022-08-02T00:36:34.884Z,100487.80
2022-08-02T00:41:34.315Z,100490.20
2022-08-02T00:46:33.738Z,100493.00
2022-08-02T00:51:33.094Z,100491.20
2022-08-02T00:56:32.003Z,100490.60
2022-08-02T01:01:56.319Z,100483.80
2022-08-02T01:06:56.976Z,100482.00
2022-08-02T01:11:56.043Z,100487.00
2022-08-02T01:17:05.251Z,100490.80
2022-08-02T01:22:59.487Z,100506.00
2022-08-02T01:28:08.520Z,100505.80
2022-08-02T01:33:13.413Z,100506.60
2022-08-02T01:38:23.060Z,100505.80
2022-08-02T01:43:24.900Z,100503.80
2022-08-02T01:48:25.991Z,100508.40
2022-08-02T01:53:28.933Z,100505.40
2022-08-02T01:58:33.017Z,100507.40
2022-08-02T02:03:33.863Z,100502.20
2022-08-02T02:08:38.575Z,100504.80
2022-08-02T02:13:42.589Z,100500.00
2022-08-02T02:18:46.753Z,100507.40
2022-08-02T02:23:47.480Z,100504.60
2022-08-02T02:28:52.973Z,100506.60
2022-08-02T02:34:00.959Z,100508.40
2022-08-02T02:39:12.977Z,100510.40
2022-08-02T02:44:19.869Z,100509.80
2022-08-02T02:49:21.941Z,100510.40
2022-08-02T02:54:30.196Z,100510.60
2022-08-02T02:59:35.347Z,100519.80
2022-08-02T03:04:57.079Z,100526.00
2022-08-02T03:09:56.170Z,100520.00
2022-08-02T03:14:55.404Z,100519.40
2022-08-02T03:19:55.512Z,100519.80
2022-08-02T03:24:55.087Z,100513.60
2022-08-02T03:29:54.852Z,100515.80
2022-08-02T03:34:54.825Z,100517.20
2022-08-02T03:39:56.995Z,100515.20
2022-08-02T03:44:57.622Z,100516.20
2022-08-02T03:49:59.192Z,100513.20
2022-08-02T03:54:58.665Z,100516.20
2022-08-02T03:59:57.101Z,100529.00
2022-08-02T04:04:57.024Z,100540.60
2022-08-02T04:09:56.051Z,100546.20
2022-08-02T04:14:55.426Z,100553.20
2022-08-02T04:20:02.454Z,100557.80
2022-08-02T04:25:06.576Z,100559.40
2022-08-02T04:30:13.251Z,100561.20
2022-08-02T04:35:20.694Z,100573.60
2022-08-02T04:40:20.663Z,100581.20
2022-08-02T04:45:21.878Z,100583.60
2022-08-02T04:50:21.882Z,100585.80
2022-08-02T04:55:20.849Z,100584.80
2022-08-02T05:00:22.331Z,100594.60
2022-08-02T05:05:21.992Z,100596.20
2022-08-02T05:10:23.743Z,100600.00
2022-08-02T05:15:22.979Z,100606.80
2022-08-02T05:20:22.757Z,100610.00
2022-08-02T05:25:21.336Z,100613.20
2022-08-02T05:30:20.531Z,100624.00
2022-08-02T05:35:23.260Z,100631.40
2022-08-02T05:40:25.517Z,100637.60
2022-08-02T05:45:26.073Z,100644.40
2022-08-02T05:50:25.254Z,100644.80
2022-08-02T05:55:35.147Z,100643.20
2022-08-02T06:00:36.910Z,100645.20
2022-08-02T06:05:43.768Z,100640.60
2022-08-02T06:10:44.452Z,100648.60
2022-08-02T06:15:53.464Z,100647.80
2022-08-02T06:20:56.595Z,100645.00
2022-08-02T06:25:58.081Z,100648.40
2022-08-02T06:30:57.881Z,100649.20
2022-08-02T06:36:10.100Z,100655.40
2022-08-02T06:41:14.680Z,100660.80
2022-08-02T06:46:54.297Z,100664.00
2022-08-02T06:51:34.369Z,100671.00
2022-08-02T06:56:33.965Z,100668.20
2022-08-02T07:01:38.555Z,100669.80
2022-08-02T07:06:38.652Z,100670.00
2022-08-02T07:11:37.933Z,100676.00
2022-08-02T07:16:38.619Z,100675.80
2022-08-02T07:21:56.339Z,100680.00
2022-08-02T07:27:10.384Z,100681.00
2022-08-02T07:32:11.092Z,100676.20
2022-08-02T07:37:20.614Z,100669.80
2022-08-02T07:42:31.339Z,100666.80
2022-08-02T07:47:31.367Z,100670.00
2022-08-02T07:52:30.320Z,100674.60
2022-08-02T07:57:28.962Z,100679.60
2022-08-02T08:02:28.641Z,100671.00
2022-08-02T08:07:28.027Z,100681.40
2022-08-02T08:12:26.838Z,100681.60
2022-08-02T08:17:27.032Z,100677.60
2022-08-02T08:22:26.465Z,100674.20
2022-08-02T08:27:25.902Z,100682.60
2022-08-02T08:32:25.223Z,100687.80
2022-08-02T08:37:26.518Z,100688.60
2022-08-02T08:42:25.222Z,100686.20
2022-08-02T08:47:33.759Z,100697.60
2022-08-02T08:52:37.328Z,100694.80
2022-08-02T08:57:39.494Z,100689.00
2022-08-02T09:02:40.546Z,100694.20
2022-08-02T09:07:39.500Z,100700.60
2022-08-02T09:12:39.079Z,100700.60
2022-08-02T09:17:51.617Z,100703.80
2022-08-02T09:23:09.197Z,100708.20
2022-08-02T09:28:09.874Z,100712.20
2022-08-02T09:33:09.866Z,100712.80
2022-08-02T09:38:18.009Z,100720.20
2022-08-02T09:43:20.296Z,100721.40
2022-08-02T09:48:19.063Z,100725.40
2022-08-02T09:53:21.158Z,100721.60
2022-08-02T09:58:25.306Z,100732.20
2022-08-02T10:03:25.319Z,100728.20
2022-08-02T10:08:35.116Z,100721.00
2022-08-02T10:13:37.395Z,100728.00
2022-08-02T10:18:40.222Z,100722.20
2022-08-02T10:23:43.855Z,100722.60
2022-08-02T10:28:43.783Z,100727.40
2022-08-02T10:33:49.890Z,100727.20
2022-08-02T10:38:51.264Z,100723.80
2022-08-02T10:43:52.974Z,100728.40
2022-08-02T10:49:38.554Z,100727.80
2022-08-02T10:54:34.081Z,100726.40
2022-08-02T10:59:36.447Z,100727.80
2022-08-02T11:05:08.034Z,100718.80
2022-08-02T11:10:39.214Z,100718.00
2022-08-02T11:16:05.387Z,100722.00
2022-08-02T11:21:28.837Z,100721.80
2022-08-02T11:26:48.776Z,100724.40
2022-08-02T11:31:49.478Z,100718.60
2022-08-02T11:36:54.362Z,100716.40
2022-08-02T11:41:58.912Z,100723.00
2022-08-02T11:47:04.154Z,100723.20
2022-08-02T11:52:06.892Z,100723.80
2022-08-02T11:57:22.213Z,100728.60
2022-08-02T12:02:23.517Z,100723.60
2022-08-02T12:07:34.928Z,100717.20
2022-08-02T12:12:34.853Z,100719.00
2022-08-02T12:17:51.338Z,100719.20
2022-08-02T12:22:50.045Z,100716.40
2022-08-02T12:27:53.212Z,100718.60
2022-08-02T12:32:53.432Z,100721.20
2022-08-02T12:37:53.898Z,100717.00
2022-08-02T12:42:55.471Z,100725.20
2022-08-02T12:47:57.701Z,100718.40
2022-08-02T12:53:10.154Z,100720.40
2022-08-02T12:58:09.857Z,100723.20
2022-08-02T13:04:07.641Z,100729.60
2022-08-02T13:08:29.170Z,100726.40
2022-08-02T13:13:28.049Z,100720.40
2022-08-02T13:18:30.431Z,100729.20
2022-08-02T13:23:54.444Z,100732.40
2022-08-02T13:28:48.539Z,100737.00
2022-08-02T13:33:47.872Z,100736.20
2022-08-02T13:38:46.259Z,100734.40
2022-08-02T13:43:53.462Z,100735.80
2022-08-02T13:48:56.254Z,100734.60
2022-08-02T13:53:55.577Z,100742.80
2022-08-02T13:58:54.873Z,100733.60
2022-08-02T14:04:06.089Z,100730.80
2022-08-02T14:09:08.706Z,100727.80
2022-08-02T14:14:16.934Z,100730.40
2022-08-02T14:19:17.498Z,100731.20
2022-08-02T14:24:17.498Z,100724.00
2022-08-02T14:29:17.346Z,100721.40
2022-08-02T14:34:16.587Z,100711.80
2022-08-02T14:39:15.389Z,100721.80
2022-08-02T14:44:14.441Z,100728.00
2022-08-02T14:49:24.312Z,100718.20
2022-08-02T14:54:30.050Z,100712.60
2022-08-02T14:59:31.065Z,100713.60
2022-08-02T15:04:39.043Z,100722.00
2022-08-02T15:09:41.424Z,100717.20
2022-08-02T15:14:41.216Z,100713.00
2022-08-02T15:19:56.417Z,100717.80
2022-08-02T15:24:58.307Z,100712.60
2022-08-02T15:30:00.511Z,100722.20
2022-08-02T15:35:00.062Z,100725.20
2022-08-02T15:39:59.321Z,100724.00
2022-08-02T15:44:57.613Z,100725.80
2022-08-02T15:49:58.602Z,100718.60
2022-08-02T15:54:58.311Z,100715.80
2022-08-02T16:00:15.761Z,100722.40
2022-08-02T16:05:18.443Z,100724.00
2022-08-02T16:10:18.331Z,100719.20
2022-08-02T16:15:18.161Z,100721.60
2022-08-02T16:20:18.173Z,100723.80
2022-08-02T16:25:17.677Z,100728.80
2022-08-02T16:30:18.220Z,100733.60
2022-08-02T16:35:17.160Z,100737.20
2022-08-02T16:40:17.759Z,100741.00
2022-08-02T16:45:17.161Z,100742.60
2022-08-02T16:50:28.629Z,100741.80
2022-08-02T16:55:29.312Z,100744.60
2022-08-02T17:00:47.829Z,100747.60
2022-08-02T17:05:55.921Z,100751.80
2022-08-02T17:10:55.451Z,100745.80
2022-08-02T17:16:17.082Z,100748.00
2022-08-02T17:21:14.174Z,100757.40
2022-08-02T17:26:18.010Z,100759.20
2022-08-02T17:31:17.238Z,100760.00
2022-08-02T17:36:18.508Z,100758.20
2022-08-02T17:41:19.793Z,100758.60
2022-08-02T17:46:37.189Z,100757.80
2022-08-02T17:52:49.279Z,100761.20
2022-08-02T17:56:55.936Z,100760.80
2022-08-02T18:02:01.140Z,100762.00
2022-08-02T18:07:09.437Z,100764.00
2022-08-02T18:12:09.944Z,100768.20
2022-08-02T18:17:08.566Z,100773.80
2022-08-02T18:22:10.714Z,100778.40
2022-08-02T18:27:10.786Z,100777.60
2022-08-02T18:32:11.585Z,100788.20
2022-08-02T18:37:11.675Z,100790.00
2022-08-02T18:42:11.143Z,100788.40
2022-08-02T18:47:17.015Z,100798.20
2022-08-02T18:52:16.169Z,100803.40
2022-08-02T18:58:19.246Z,100806.60
2022-08-02T19:02:49.957Z,100813.80
2022-08-02T19:07:54.546Z,100811.40
2022-08-02T19:12:53.295Z,100814.80
2022-08-02T19:17:57.206Z,100816.40
2022-08-02T19:22:56.751Z,100815.60
2022-08-02T19:27:56.551Z,100811.00
2022-08-02T19:33:00.129Z,100809.00
2022-08-02T19:38:06.776Z,100804.60
2022-08-02T19:44:24.592Z,100810.80
2022-08-02T19:48:25.535Z,100812.00
2022-08-02T19:53:28.789Z,100803.40
2022-08-02T19:58:28.295Z,100799.80
2022-08-02T20:03:51.348Z,100798.80
2022-08-02T20:08:53.031Z,100798.20
2022-08-02T20:13:55.936Z,100798.60
2022-08-02T20:18:54.938Z,100796.80
2022-08-02T20:23:53.982Z,100801.60
2022-08-02T20:28:53.053Z,100806.20
2022-08-02T20:33:56.023Z,100801.00
2022-08-02T20:38:55.936Z,100804.00
2022-08-02T20:43:55.376Z,100806.20
2022-08-02T20:48:57.500Z,100801.40
2022-08-02T20:54:00.295Z,100805.00
2022-08-02T20:59:03.686Z,100809.60
2022-08-02T21:04:21.212Z,100811.60
2022-08-02T21:09:23.855Z,100812.20
2022-08-02T21:14:39.787Z,100812.40
2022-08-02T21:19:44.208Z,100812.60
2022-08-02T21:24:43.885Z,100814.60
2022-08-02T21:29:47.253Z,100815.00
2022-08-02T21:34:48.300Z,100813.60
2022-08-02T21:39:49.799Z,100815.20
2022-08-02T21:44:50.754Z,100809.40
2022-08-02T21:50:10.537Z,100809.20
2022-08-02T21:55:14.986Z,100816.00
2022-08-02T22:00:17.873Z,100817.20
2022-08-02T22:05:28.736Z,100818.20
2022-08-02T22:10:58.066Z,100819.00
2022-08-02T22:15:59.337Z,100818.60
2022-08-02T22:20:58.855Z,100816.80
2022-08-02T22:25:58.481Z,100822.00
2022-08-02T22:30:58.154Z,100826.60
2022-08-02T22:35:59.919Z,100826.20
2022-08-02T22:40:58.546Z,100827.60
2022-08-02T22:45:57.593Z,100824.60
2022-08-02T22:50:56.898Z,100821.40
2022-08-02T22:55:55.626Z,100823.80
2022-08-02T23:00:54.387Z,100832.80
2022-08-02T23:05:54.492Z,100834.20
2022-08-02T23:10:53.432Z,100842.40
2022-08-02T23:16:10.270Z,100846.60
2022-08-02T23:21:09.253Z,100845.20
2022-08-02T23:26:08.588Z,100843.60
2022-08-02T23:31:47.310Z,100842.60
2022-08-02T23:36:46.724Z,100837.40
2022-08-02T23:41:45.277Z,100832.80
2022-08-02T23:46:54.891Z,100829.20
2022-08-02T23:52:01.282Z,100827.40
2022-08-02T23:57:00.492Z,100832.20
